<?xml version="1.0" encoding="UTF-8" standalone="no" ?>
<gpx xmlns="http://www.topografix.com/GPX/1/1" xmlns:xsi="http://www.w3.org/2001/XMLSchema-instance" xsi:schemaLocation="http://www.topografix.com/GPX/1/1 http://www.topografix.com/GPX/1/1/gpx.xsd" version="1.1" creator="VisuGPX - https://www.visugpx.com">
  <metadata>
    <name>boucle de la Queue d'Âne variante</name>
  </metadata>
  <wpt lat="45.44256" lon="0.84487">
    <ele>262.3</ele>
    <name><![CDATA[Place de l'église]]></name>
  </wpt>
  <wpt lat="45.44196" lon="0.86191">
    <ele>168.4</ele>
    <name><![CDATA[Traversée de la Queue d'Âne à la Rebière]]></name>
  </wpt>
  <wpt lat="45.44706" lon="0.87449">
    <ele>229.8</ele>
    <name><![CDATA[Parcours alternatif]]></name>
  </wpt>
  <wpt lat="45.45094" lon="0.87459">
    <ele>249.9</ele>
    <name><![CDATA[Parcours alternatif]]></name>
  </wpt>
  <wpt lat="45.45357" lon="0.87253">
    <ele>251.9</ele>
    <name><![CDATA[Réunification du parcours]]></name>
  </wpt>
  <wpt lat="45.4522" lon="0.85592">
    <ele>210.6</ele>
    <name><![CDATA[Croisement d'une route]]></name>
  </wpt>
  <wpt lat="45.44264" lon="0.84479">
    <ele>262.9</ele>
    <name><![CDATA[Place de l'église]]></name>
  </wpt>
  <trk>
    <name><![CDATA[Boucle de la Queue d'Âne]]></name>
    <extensions>
      <line xmlns="http://www.topografix.com/GPX/gpx_style/0/2">
        <color>0000FF</color>
        <width>4</width>
      </line>
    </extensions>
    <trkseg>
      <trkpt lat="45.44256" lon="0.84487">
        <ele>262</ele>
        <time>2019-07-22T08:44:05+02:00</time>
      </trkpt>
      <trkpt lat="45.44231" lon="0.84473">
        <ele>260</ele>
        <time>2019-07-22T08:45:44+02:00</time>
      </trkpt>
      <trkpt lat="45.4421" lon="0.84487">
        <ele>259</ele>
        <time>2019-07-22T08:48:25+02:00</time>
      </trkpt>
      <trkpt lat="45.44196" lon="0.84512">
        <ele>258</ele>
        <time>2019-07-22T08:48:45+02:00</time>
      </trkpt>
      <trkpt lat="45.44178" lon="0.84534">
        <ele>256</ele>
        <time>2019-07-22T08:49:06+02:00</time>
      </trkpt>
      <trkpt lat="45.44159" lon="0.84551">
        <ele>254</ele>
        <time>2019-07-22T08:49:32+02:00</time>
      </trkpt>
      <trkpt lat="45.44139" lon="0.84581">
        <ele>252</ele>
        <time>2019-07-22T08:50:02+02:00</time>
      </trkpt>
      <trkpt lat="45.44142" lon="0.84613">
        <ele>251</ele>
        <time>2019-07-22T08:50:49+02:00</time>
      </trkpt>
      <trkpt lat="45.44153" lon="0.84641">
        <ele>250</ele>
        <time>2019-07-22T08:51:28+02:00</time>
      </trkpt>
      <trkpt lat="45.44165" lon="0.84673">
        <ele>247</ele>
        <time>2019-07-22T08:51:49+02:00</time>
      </trkpt>
      <trkpt lat="45.44179" lon="0.84713">
        <ele>244</ele>
        <time>2019-07-22T08:52:21+02:00</time>
      </trkpt>
      <trkpt lat="45.44188" lon="0.84742">
        <ele>242</ele>
        <time>2019-07-22T08:52:41+02:00</time>
      </trkpt>
      <trkpt lat="45.44203" lon="0.8478">
        <ele>239</ele>
        <time>2019-07-22T08:53:19+02:00</time>
      </trkpt>
      <trkpt lat="45.44209" lon="0.84812">
        <ele>236</ele>
        <time>2019-07-22T08:53:52+02:00</time>
      </trkpt>
      <trkpt lat="45.44204" lon="0.84844">
        <ele>234</ele>
        <time>2019-07-22T08:54:18+02:00</time>
      </trkpt>
      <trkpt lat="45.44193" lon="0.84874">
        <ele>232</ele>
        <time>2019-07-22T08:54:44+02:00</time>
      </trkpt>
      <trkpt lat="45.44191" lon="0.84906">
        <ele>229</ele>
        <time>2019-07-22T08:56:09+02:00</time>
      </trkpt>
      <trkpt lat="45.44193" lon="0.84939">
        <ele>227</ele>
        <time>2019-07-22T08:56:35+02:00</time>
      </trkpt>
      <trkpt lat="45.44191" lon="0.84974">
        <ele>224</ele>
        <time>2019-07-22T08:56:55+02:00</time>
      </trkpt>
      <trkpt lat="45.44184" lon="0.85006">
        <ele>222</ele>
        <time>2019-07-22T08:57:22+02:00</time>
      </trkpt>
      <trkpt lat="45.44174" lon="0.85039">
        <ele>220</ele>
        <time>2019-07-22T08:57:50+02:00</time>
      </trkpt>
      <trkpt lat="45.44166" lon="0.85072">
        <ele>219</ele>
        <time>2019-07-22T08:58:14+02:00</time>
      </trkpt>
      <trkpt lat="45.44158" lon="0.85107">
        <ele>218</ele>
        <time>2019-07-22T08:58:35+02:00</time>
      </trkpt>
      <trkpt lat="45.44147" lon="0.85137">
        <ele>217</ele>
        <time>2019-07-22T08:58:56+02:00</time>
      </trkpt>
      <trkpt lat="45.44141" lon="0.85168">
        <ele>215</ele>
        <time>2019-07-22T09:00:36+02:00</time>
      </trkpt>
      <trkpt lat="45.44134" lon="0.85207">
        <ele>213</ele>
        <time>2019-07-22T09:01:07+02:00</time>
      </trkpt>
      <trkpt lat="45.44131" lon="0.85246">
        <ele>211</ele>
        <time>2019-07-22T09:01:31+02:00</time>
      </trkpt>
      <trkpt lat="45.44126" lon="0.85278">
        <ele>210</ele>
        <time>2019-07-22T09:01:50+02:00</time>
      </trkpt>
      <trkpt lat="45.44122" lon="0.85321">
        <ele>208</ele>
        <time>2019-07-22T09:02:23+02:00</time>
      </trkpt>
      <trkpt lat="45.44118" lon="0.85361">
        <ele>206</ele>
        <time>2019-07-22T09:02:47+02:00</time>
      </trkpt>
      <trkpt lat="45.44114" lon="0.85396">
        <ele>203</ele>
        <time>2019-07-22T09:03:10+02:00</time>
      </trkpt>
      <trkpt lat="45.44106" lon="0.85433">
        <ele>200</ele>
        <time>2019-07-22T09:03:38+02:00</time>
      </trkpt>
      <trkpt lat="45.44098" lon="0.85464">
        <ele>198</ele>
        <time>2019-07-22T09:04:01+02:00</time>
      </trkpt>
      <trkpt lat="45.44092" lon="0.85507">
        <ele>194</ele>
        <time>2019-07-22T09:04:33+02:00</time>
      </trkpt>
      <trkpt lat="45.44107" lon="0.85531">
        <ele>194</ele>
        <time>2019-07-22T09:05:12+02:00</time>
      </trkpt>
      <trkpt lat="45.44113" lon="0.85563">
        <ele>193</ele>
        <time>2019-07-22T09:05:29+02:00</time>
      </trkpt>
      <trkpt lat="45.44103" lon="0.85593">
        <ele>191</ele>
        <time>2019-07-22T09:05:50+02:00</time>
      </trkpt>
      <trkpt lat="45.4409" lon="0.85624">
        <ele>190</ele>
        <time>2019-07-22T09:06:24+02:00</time>
      </trkpt>
      <trkpt lat="45.44096" lon="0.85663">
        <ele>191</ele>
        <time>2019-07-22T09:06:56+02:00</time>
      </trkpt>
      <trkpt lat="45.44111" lon="0.85688">
        <ele>191</ele>
        <time>2019-07-22T09:07:31+02:00</time>
      </trkpt>
      <trkpt lat="45.44094" lon="0.85699">
        <ele>190</ele>
        <time>2019-07-22T09:08:11+02:00</time>
      </trkpt>
      <trkpt lat="45.44097" lon="0.85736">
        <ele>189</ele>
        <time>2019-07-22T09:12:39+02:00</time>
      </trkpt>
      <trkpt lat="45.44098" lon="0.8573">
        <ele>189</ele>
        <time>2019-07-22T09:13:00+02:00</time>
      </trkpt>
      <trkpt lat="45.441" lon="0.85767">
        <ele>189</ele>
        <time>2019-07-22T09:13:29+02:00</time>
      </trkpt>
      <trkpt lat="45.44106" lon="0.85798">
        <ele>189</ele>
        <time>2019-07-22T09:13:49+02:00</time>
      </trkpt>
      <trkpt lat="45.44107" lon="0.85831">
        <ele>189</ele>
        <time>2019-07-22T09:14:07+02:00</time>
      </trkpt>
      <trkpt lat="45.44104" lon="0.85864">
        <ele>188</ele>
        <time>2019-07-22T09:14:27+02:00</time>
      </trkpt>
      <trkpt lat="45.44102" lon="0.85896">
        <ele>188</ele>
        <time>2019-07-22T09:14:47+02:00</time>
      </trkpt>
      <trkpt lat="45.441" lon="0.8593">
        <ele>187</ele>
        <time>2019-07-22T09:15:11+02:00</time>
      </trkpt>
      <trkpt lat="45.44096" lon="0.85961">
        <ele>186</ele>
        <time>2019-07-22T09:15:34+02:00</time>
      </trkpt>
      <trkpt lat="45.441" lon="0.85994">
        <ele>185</ele>
        <time>2019-07-22T09:15:56+02:00</time>
      </trkpt>
      <trkpt lat="45.4411" lon="0.86023">
        <ele>184</ele>
        <time>2019-07-22T09:16:18+02:00</time>
      </trkpt>
      <trkpt lat="45.44111" lon="0.86055">
        <ele>183</ele>
        <time>2019-07-22T09:16:43+02:00</time>
      </trkpt>
      <trkpt lat="45.44099" lon="0.86084">
        <ele>181</ele>
        <time>2019-07-22T09:17:03+02:00</time>
      </trkpt>
      <trkpt lat="45.44108" lon="0.86114">
        <ele>179</ele>
        <time>2019-07-22T09:18:19+02:00</time>
      </trkpt>
      <trkpt lat="45.44124" lon="0.86138">
        <ele>176</ele>
        <time>2019-07-22T09:18:45+02:00</time>
      </trkpt>
      <trkpt lat="45.44144" lon="0.86156">
        <ele>175</ele>
        <time>2019-07-22T09:19:12+02:00</time>
      </trkpt>
      <trkpt lat="45.44169" lon="0.86174">
        <ele>174</ele>
        <time>2019-07-22T09:19:38+02:00</time>
      </trkpt>
      <trkpt lat="45.44196" lon="0.86191">
        <ele>173</ele>
        <time>2019-07-22T09:20:59+02:00</time>
      </trkpt>
      <trkpt lat="45.44218" lon="0.86215">
        <ele>173</ele>
        <time>2019-07-22T09:22:48+02:00</time>
      </trkpt>
      <trkpt lat="45.44215" lon="0.86249">
        <ele>172</ele>
        <time>2019-07-22T09:23:09+02:00</time>
      </trkpt>
      <trkpt lat="45.44208" lon="0.86281">
        <ele>175</ele>
        <time>2019-07-22T09:23:28+02:00</time>
      </trkpt>
      <trkpt lat="45.44207" lon="0.86318">
        <ele>179</ele>
        <time>2019-07-22T09:23:55+02:00</time>
      </trkpt>
      <trkpt lat="45.44212" lon="0.86349">
        <ele>182</ele>
        <time>2019-07-22T09:24:31+02:00</time>
      </trkpt>
      <trkpt lat="45.44222" lon="0.86379">
        <ele>185</ele>
        <time>2019-07-22T09:25:05+02:00</time>
      </trkpt>
      <trkpt lat="45.44229" lon="0.86412">
        <ele>188</ele>
        <time>2019-07-22T09:25:28+02:00</time>
      </trkpt>
      <trkpt lat="45.44233" lon="0.8645">
        <ele>189</ele>
        <time>2019-07-22T09:25:49+02:00</time>
      </trkpt>
      <trkpt lat="45.4424" lon="0.86481">
        <ele>191</ele>
        <time>2019-07-22T09:26:14+02:00</time>
      </trkpt>
      <trkpt lat="45.44246" lon="0.86516">
        <ele>192</ele>
        <time>2019-07-22T09:26:38+02:00</time>
      </trkpt>
      <trkpt lat="45.44249" lon="0.86549">
        <ele>193</ele>
        <time>2019-07-22T09:26:59+02:00</time>
      </trkpt>
      <trkpt lat="45.44257" lon="0.86579">
        <ele>195</ele>
        <time>2019-07-22T09:27:20+02:00</time>
      </trkpt>
      <trkpt lat="45.44282" lon="0.86588">
        <ele>195</ele>
        <time>2019-07-22T09:27:49+02:00</time>
      </trkpt>
      <trkpt lat="45.44288" lon="0.86622">
        <ele>197</ele>
        <time>2019-07-22T09:28:19+02:00</time>
      </trkpt>
      <trkpt lat="45.44291" lon="0.86656">
        <ele>199</ele>
        <time>2019-07-22T09:28:47+02:00</time>
      </trkpt>
      <trkpt lat="45.44289" lon="0.86691">
        <ele>201</ele>
        <time>2019-07-22T09:29:13+02:00</time>
      </trkpt>
      <trkpt lat="45.44285" lon="0.86728">
        <ele>202</ele>
        <time>2019-07-22T09:29:35+02:00</time>
      </trkpt>
      <trkpt lat="45.44271" lon="0.86754">
        <ele>203</ele>
        <time>2019-07-22T09:29:59+02:00</time>
      </trkpt>
      <trkpt lat="45.44254" lon="0.86776">
        <ele>204</ele>
        <time>2019-07-22T09:30:19+02:00</time>
      </trkpt>
      <trkpt lat="45.44239" lon="0.868">
        <ele>206</ele>
        <time>2019-07-22T09:30:37+02:00</time>
      </trkpt>
      <trkpt lat="45.44222" lon="0.86826">
        <ele>208</ele>
        <time>2019-07-22T09:31:02+02:00</time>
      </trkpt>
      <trkpt lat="45.44206" lon="0.86849">
        <ele>210</ele>
        <time>2019-07-22T09:31:21+02:00</time>
      </trkpt>
      <trkpt lat="45.44189" lon="0.86873">
        <ele>212</ele>
        <time>2019-07-22T09:31:44+02:00</time>
      </trkpt>
      <trkpt lat="45.44173" lon="0.86897">
        <ele>214</ele>
        <time>2019-07-22T09:32:05+02:00</time>
      </trkpt>
      <trkpt lat="45.44147" lon="0.86893">
        <ele>215</ele>
        <time>2019-07-22T09:34:02+02:00</time>
      </trkpt>
      <trkpt lat="45.44163" lon="0.86917">
        <ele>215</ele>
        <time>2019-07-22T09:37:49+02:00</time>
      </trkpt>
      <trkpt lat="45.44178" lon="0.86942">
        <ele>217</ele>
        <time>2019-07-22T09:38:12+02:00</time>
      </trkpt>
      <trkpt lat="45.44194" lon="0.86973">
        <ele>219</ele>
        <time>2019-07-22T09:38:36+02:00</time>
      </trkpt>
      <trkpt lat="45.44208" lon="0.87006">
        <ele>220</ele>
        <time>2019-07-22T09:39:00+02:00</time>
      </trkpt>
      <trkpt lat="45.44223" lon="0.87041">
        <ele>221</ele>
        <time>2019-07-22T09:39:26+02:00</time>
      </trkpt>
      <trkpt lat="45.44234" lon="0.8707">
        <ele>222</ele>
        <time>2019-07-22T09:39:48+02:00</time>
      </trkpt>
      <trkpt lat="45.44248" lon="0.871">
        <ele>222</ele>
        <time>2019-07-22T09:40:13+02:00</time>
      </trkpt>
      <trkpt lat="45.44266" lon="0.8713">
        <ele>222</ele>
        <time>2019-07-22T09:40:32+02:00</time>
      </trkpt>
      <trkpt lat="45.44282" lon="0.87153">
        <ele>223</ele>
        <time>2019-07-22T09:40:53+02:00</time>
      </trkpt>
      <trkpt lat="45.44302" lon="0.87182">
        <ele>224</ele>
        <time>2019-07-22T09:41:21+02:00</time>
      </trkpt>
      <trkpt lat="45.44319" lon="0.87214">
        <ele>225</ele>
        <time>2019-07-22T09:41:45+02:00</time>
      </trkpt>
      <trkpt lat="45.44333" lon="0.87245">
        <ele>226</ele>
        <time>2019-07-22T09:42:12+02:00</time>
      </trkpt>
      <trkpt lat="45.44348" lon="0.87271">
        <ele>226</ele>
        <time>2019-07-22T09:42:31+02:00</time>
      </trkpt>
      <trkpt lat="45.44361" lon="0.87298">
        <ele>225</ele>
        <time>2019-07-22T09:42:51+02:00</time>
      </trkpt>
      <trkpt lat="45.44372" lon="0.87329">
        <ele>226</ele>
        <time>2019-07-22T09:43:13+02:00</time>
      </trkpt>
      <trkpt lat="45.44391" lon="0.87351">
        <ele>225</ele>
        <time>2019-07-22T09:43:44+02:00</time>
      </trkpt>
      <trkpt lat="45.44404" lon="0.87378">
        <ele>226</ele>
        <time>2019-07-22T09:44:05+02:00</time>
      </trkpt>
      <trkpt lat="45.44416" lon="0.87407">
        <ele>227</ele>
        <time>2019-07-22T09:44:24+02:00</time>
      </trkpt>
      <trkpt lat="45.44432" lon="0.87431">
        <ele>227</ele>
        <time>2019-07-22T09:47:13+02:00</time>
      </trkpt>
      <trkpt lat="45.44454" lon="0.87435">
        <ele>226</ele>
        <time>2019-07-22T09:47:46+02:00</time>
      </trkpt>
      <trkpt lat="45.44477" lon="0.87434">
        <ele>225</ele>
        <time>2019-07-22T09:48:08+02:00</time>
      </trkpt>
      <trkpt lat="45.44506" lon="0.87449">
        <ele>225</ele>
        <time>2019-07-22T09:48:36+02:00</time>
      </trkpt>
      <trkpt lat="45.44535" lon="0.87458">
        <ele>225</ele>
        <time>2019-07-22T09:49:01+02:00</time>
      </trkpt>
      <trkpt lat="45.44567" lon="0.87462">
        <ele>226</ele>
        <time>2019-07-22T09:49:27+02:00</time>
      </trkpt>
      <trkpt lat="45.44594" lon="0.87465">
        <ele>226</ele>
        <time>2019-07-22T09:49:52+02:00</time>
      </trkpt>
      <trkpt lat="45.44617" lon="0.8747">
        <ele>228</ele>
        <time>2019-07-22T09:50:16+02:00</time>
      </trkpt>
      <trkpt lat="45.4464" lon="0.87469">
        <ele>229</ele>
        <time>2019-07-22T09:50:36+02:00</time>
      </trkpt>
      <trkpt lat="45.44663" lon="0.8747">
        <ele>230</ele>
        <time>2019-07-22T09:50:59+02:00</time>
      </trkpt>
      <trkpt lat="45.44686" lon="0.87465">
        <ele>231</ele>
        <time>2019-07-22T09:51:21+02:00</time>
      </trkpt>
      <trkpt lat="45.44706" lon="0.87449">
        <ele>230</ele>
        <time>2019-07-22T09:52:47+02:00</time>
      </trkpt>
      <trkpt lat="45.44729" lon="0.87445">
        <ele>231</ele>
        <time>2019-07-22T09:53:08+02:00</time>
      </trkpt>
      <trkpt lat="45.44753" lon="0.87445">
        <ele>231</ele>
        <time>2019-07-22T09:53:29+02:00</time>
      </trkpt>
      <trkpt lat="45.44776" lon="0.87441">
        <ele>233</ele>
        <time>2019-07-22T09:53:49+02:00</time>
      </trkpt>
      <trkpt lat="45.44803" lon="0.87443">
        <ele>234</ele>
        <time>2019-07-22T09:54:19+02:00</time>
      </trkpt>
      <trkpt lat="45.44826" lon="0.87439">
        <ele>235</ele>
        <time>2019-07-22T09:54:40+02:00</time>
      </trkpt>
      <trkpt lat="45.4485" lon="0.8744">
        <ele>237</ele>
        <time>2019-07-22T09:55:01+02:00</time>
      </trkpt>
      <trkpt lat="45.44873" lon="0.87442">
        <ele>238</ele>
        <time>2019-07-22T09:55:26+02:00</time>
      </trkpt>
      <trkpt lat="45.44902" lon="0.87444">
        <ele>239</ele>
        <time>2019-07-22T09:55:55+02:00</time>
      </trkpt>
      <trkpt lat="45.44925" lon="0.87445">
        <ele>241</ele>
        <time>2019-07-22T09:56:21+02:00</time>
      </trkpt>
      <trkpt lat="45.44949" lon="0.87446">
        <ele>243</ele>
        <time>2019-07-22T09:56:43+02:00</time>
      </trkpt>
      <trkpt lat="45.44971" lon="0.87454">
        <ele>246</ele>
        <time>2019-07-22T09:57:05+02:00</time>
      </trkpt>
      <trkpt lat="45.44998" lon="0.8745">
        <ele>248</ele>
        <time>2019-07-22T09:57:33+02:00</time>
      </trkpt>
      <trkpt lat="45.45021" lon="0.87452">
        <ele>249</ele>
        <time>2019-07-22T09:57:54+02:00</time>
      </trkpt>
      <trkpt lat="45.45043" lon="0.87458">
        <ele>251</ele>
        <time>2019-07-22T09:58:17+02:00</time>
      </trkpt>
      <trkpt lat="45.45071" lon="0.87461">
        <ele>252</ele>
        <time>2019-07-22T09:58:42+02:00</time>
      </trkpt>
      <trkpt lat="45.45094" lon="0.87459">
        <ele>253</ele>
        <time>2019-07-22T09:59:02+02:00</time>
      </trkpt>
      <trkpt lat="45.45117" lon="0.87458">
        <ele>254</ele>
        <time>2019-07-22T09:59:26+02:00</time>
      </trkpt>
      <trkpt lat="45.4514" lon="0.8746">
        <ele>254</ele>
        <time>2019-07-22T09:59:50+02:00</time>
      </trkpt>
      <trkpt lat="45.45163" lon="0.87462">
        <ele>255</ele>
        <time>2019-07-22T10:00:10+02:00</time>
      </trkpt>
      <trkpt lat="45.45185" lon="0.87466">
        <ele>255</ele>
        <time>2019-07-22T10:00:34+02:00</time>
      </trkpt>
      <trkpt lat="45.45208" lon="0.87466">
        <ele>255</ele>
        <time>2019-07-22T10:00:57+02:00</time>
      </trkpt>
      <trkpt lat="45.45231" lon="0.87467">
        <ele>255</ele>
        <time>2019-07-22T10:01:17+02:00</time>
      </trkpt>
      <trkpt lat="45.45261" lon="0.87468">
        <ele>255</ele>
        <time>2019-07-22T10:01:44+02:00</time>
      </trkpt>
      <trkpt lat="45.45288" lon="0.87472">
        <ele>256</ele>
        <time>2019-07-22T10:02:10+02:00</time>
      </trkpt>
      <trkpt lat="45.45311" lon="0.87469">
        <ele>256</ele>
        <time>2019-07-22T10:02:30+02:00</time>
      </trkpt>
      <trkpt lat="45.45334" lon="0.87471">
        <ele>257</ele>
        <time>2019-07-22T10:02:55+02:00</time>
      </trkpt>
      <trkpt lat="45.45337" lon="0.87439">
        <ele>256</ele>
        <time>2019-07-22T10:03:30+02:00</time>
      </trkpt>
      <trkpt lat="45.45341" lon="0.87407">
        <ele>255</ele>
        <time>2019-07-22T10:05:11+02:00</time>
      </trkpt>
      <trkpt lat="45.4534" lon="0.87368">
        <ele>254</ele>
        <time>2019-07-22T10:05:37+02:00</time>
      </trkpt>
      <trkpt lat="45.45341" lon="0.87335">
        <ele>253</ele>
        <time>2019-07-22T10:06:02+02:00</time>
      </trkpt>
      <trkpt lat="45.45348" lon="0.87321">
        <ele>253</ele>
        <time>2019-07-22T10:06:33+02:00</time>
      </trkpt>
      <trkpt lat="45.45351" lon="0.87296">
        <ele>253</ele>
        <time>2019-07-22T10:06:57+02:00</time>
      </trkpt>
      <trkpt lat="45.45357" lon="0.87253">
        <ele>253</ele>
        <time>2019-07-22T10:07:28+02:00</time>
      </trkpt>
      <trkpt lat="45.45353" lon="0.87214">
        <ele>251</ele>
        <time>2019-07-22T10:08:43+02:00</time>
      </trkpt>
      <trkpt lat="45.45364" lon="0.87186">
        <ele>250</ele>
        <time>2019-07-22T10:12:03+02:00</time>
      </trkpt>
      <trkpt lat="45.45363" lon="0.87154">
        <ele>249</ele>
        <time>2019-07-22T10:12:23+02:00</time>
      </trkpt>
      <trkpt lat="45.45363" lon="0.8712">
        <ele>248</ele>
        <time>2019-07-22T10:12:45+02:00</time>
      </trkpt>
      <trkpt lat="45.45361" lon="0.87088">
        <ele>247</ele>
        <time>2019-07-22T10:13:14+02:00</time>
      </trkpt>
      <trkpt lat="45.45363" lon="0.87048">
        <ele>247</ele>
        <time>2019-07-22T10:13:43+02:00</time>
      </trkpt>
      <trkpt lat="45.4537" lon="0.87015">
        <ele>247</ele>
        <time>2019-07-22T10:14:09+02:00</time>
      </trkpt>
      <trkpt lat="45.45374" lon="0.86983">
        <ele>247</ele>
        <time>2019-07-22T10:14:36+02:00</time>
      </trkpt>
      <trkpt lat="45.45379" lon="0.8695">
        <ele>247</ele>
        <time>2019-07-22T10:14:54+02:00</time>
      </trkpt>
      <trkpt lat="45.45381" lon="0.86917">
        <ele>246</ele>
        <time>2019-07-22T10:15:19+02:00</time>
      </trkpt>
      <trkpt lat="45.45386" lon="0.86885">
        <ele>245</ele>
        <time>2019-07-22T10:15:45+02:00</time>
      </trkpt>
      <trkpt lat="45.45385" lon="0.86851">
        <ele>244</ele>
        <time>2019-07-22T10:16:04+02:00</time>
      </trkpt>
      <trkpt lat="45.4539" lon="0.86819">
        <ele>243</ele>
        <time>2019-07-22T10:16:23+02:00</time>
      </trkpt>
      <trkpt lat="45.45395" lon="0.86788">
        <ele>242</ele>
        <time>2019-07-22T10:16:44+02:00</time>
      </trkpt>
      <trkpt lat="45.45399" lon="0.86756">
        <ele>241</ele>
        <time>2019-07-22T10:17:11+02:00</time>
      </trkpt>
      <trkpt lat="45.45405" lon="0.86725">
        <ele>239</ele>
        <time>2019-07-22T10:17:35+02:00</time>
      </trkpt>
      <trkpt lat="45.45412" lon="0.86693">
        <ele>238</ele>
        <time>2019-07-22T10:18:06+02:00</time>
      </trkpt>
      <trkpt lat="45.4542" lon="0.86662">
        <ele>235</ele>
        <time>2019-07-22T10:18:33+02:00</time>
      </trkpt>
      <trkpt lat="45.45431" lon="0.86633">
        <ele>233</ele>
        <time>2019-07-22T10:18:52+02:00</time>
      </trkpt>
      <trkpt lat="45.45443" lon="0.86597">
        <ele>229</ele>
        <time>2019-07-22T10:19:24+02:00</time>
      </trkpt>
      <trkpt lat="45.45429" lon="0.86572">
        <ele>229</ele>
        <time>2019-07-22T10:19:46+02:00</time>
      </trkpt>
      <trkpt lat="45.45411" lon="0.86551">
        <ele>228</ele>
        <time>2019-07-22T10:20:15+02:00</time>
      </trkpt>
      <trkpt lat="45.454" lon="0.86523">
        <ele>225</ele>
        <time>2019-07-22T10:20:37+02:00</time>
      </trkpt>
      <trkpt lat="45.45385" lon="0.86498">
        <ele>223</ele>
        <time>2019-07-22T10:21:11+02:00</time>
      </trkpt>
      <trkpt lat="45.45373" lon="0.86471">
        <ele>223</ele>
        <time>2019-07-22T10:21:34+02:00</time>
      </trkpt>
      <trkpt lat="45.45357" lon="0.86446">
        <ele>222</ele>
        <time>2019-07-22T10:21:59+02:00</time>
      </trkpt>
      <trkpt lat="45.45335" lon="0.86435">
        <ele>223</ele>
        <time>2019-07-22T10:22:16+02:00</time>
      </trkpt>
      <trkpt lat="45.45325" lon="0.86407">
        <ele>221</ele>
        <time>2019-07-22T10:22:37+02:00</time>
      </trkpt>
      <trkpt lat="45.45322" lon="0.86366">
        <ele>219</ele>
        <time>2019-07-22T10:23:07+02:00</time>
      </trkpt>
      <trkpt lat="45.45318" lon="0.86334">
        <ele>218</ele>
        <time>2019-07-22T10:23:26+02:00</time>
      </trkpt>
      <trkpt lat="45.45313" lon="0.86296">
        <ele>216</ele>
        <time>2019-07-22T10:23:56+02:00</time>
      </trkpt>
      <trkpt lat="45.45313" lon="0.86254">
        <ele>213</ele>
        <time>2019-07-22T10:24:29+02:00</time>
      </trkpt>
      <trkpt lat="45.45301" lon="0.86214">
        <ele>209</ele>
        <time>2019-07-22T10:25:03+02:00</time>
      </trkpt>
      <trkpt lat="45.45283" lon="0.86192">
        <ele>206</ele>
        <time>2019-07-22T10:25:33+02:00</time>
      </trkpt>
      <trkpt lat="45.45263" lon="0.86175">
        <ele>205</ele>
        <time>2019-07-22T10:25:57+02:00</time>
      </trkpt>
      <trkpt lat="45.45242" lon="0.86154">
        <ele>202</ele>
        <time>2019-07-22T10:26:18+02:00</time>
      </trkpt>
      <trkpt lat="45.4522" lon="0.86138">
        <ele>198</ele>
        <time>2019-07-22T10:26:40+02:00</time>
      </trkpt>
      <trkpt lat="45.45204" lon="0.86115">
        <ele>194</ele>
        <time>2019-07-22T10:27:06+02:00</time>
      </trkpt>
      <trkpt lat="45.45181" lon="0.86108">
        <ele>191</ele>
        <time>2019-07-22T10:27:34+02:00</time>
      </trkpt>
      <trkpt lat="45.45155" lon="0.86087">
        <ele>187</ele>
        <time>2019-07-22T10:29:15+02:00</time>
      </trkpt>
      <trkpt lat="45.45157" lon="0.86055">
        <ele>187</ele>
        <time>2019-07-22T10:30:12+02:00</time>
      </trkpt>
      <trkpt lat="45.45172" lon="0.86029">
        <ele>186</ele>
        <time>2019-07-22T10:30:32+02:00</time>
      </trkpt>
      <trkpt lat="45.45193" lon="0.85996">
        <ele>187</ele>
        <time>2019-07-22T10:38:52+02:00</time>
      </trkpt>
      <trkpt lat="45.45197" lon="0.85965">
        <ele>191</ele>
        <time>2019-07-22T10:39:17+02:00</time>
      </trkpt>
      <trkpt lat="45.45199" lon="0.85928">
        <ele>196</ele>
        <time>2019-07-22T10:39:48+02:00</time>
      </trkpt>
      <trkpt lat="45.45208" lon="0.85895">
        <ele>199</ele>
        <time>2019-07-22T10:40:15+02:00</time>
      </trkpt>
      <trkpt lat="45.45222" lon="0.85862">
        <ele>201</ele>
        <time>2019-07-22T10:40:46+02:00</time>
      </trkpt>
      <trkpt lat="45.45223" lon="0.85828">
        <ele>204</ele>
        <time>2019-07-22T10:41:16+02:00</time>
      </trkpt>
      <trkpt lat="45.45228" lon="0.85792">
        <ele>204</ele>
        <time>2019-07-22T10:41:40+02:00</time>
      </trkpt>
      <trkpt lat="45.45236" lon="0.8576">
        <ele>205</ele>
        <time>2019-07-22T10:42:03+02:00</time>
      </trkpt>
      <trkpt lat="45.45241" lon="0.85721">
        <ele>206</ele>
        <time>2019-07-22T10:42:36+02:00</time>
      </trkpt>
      <trkpt lat="45.45241" lon="0.85688">
        <ele>206</ele>
        <time>2019-07-22T10:42:59+02:00</time>
      </trkpt>
      <trkpt lat="45.45235" lon="0.85656">
        <ele>207</ele>
        <time>2019-07-22T10:43:22+02:00</time>
      </trkpt>
      <trkpt lat="45.4523" lon="0.85623">
        <ele>208</ele>
        <time>2019-07-22T10:43:47+02:00</time>
      </trkpt>
      <trkpt lat="45.4522" lon="0.85592">
        <ele>210</ele>
        <time>2019-07-22T10:44:42+02:00</time>
      </trkpt>
      <trkpt lat="45.45197" lon="0.85596">
        <ele>209</ele>
        <time>2019-07-22T10:46:14+02:00</time>
      </trkpt>
      <trkpt lat="45.45175" lon="0.85603">
        <ele>208</ele>
        <time>2019-07-22T10:46:34+02:00</time>
      </trkpt>
      <trkpt lat="45.45152" lon="0.85609">
        <ele>207</ele>
        <time>2019-07-22T10:46:54+02:00</time>
      </trkpt>
      <trkpt lat="45.45135" lon="0.85583">
        <ele>208</ele>
        <time>2019-07-22T10:48:24+02:00</time>
      </trkpt>
      <trkpt lat="45.45125" lon="0.85542">
        <ele>210</ele>
        <time>2019-07-22T10:48:56+02:00</time>
      </trkpt>
      <trkpt lat="45.45117" lon="0.85511">
        <ele>212</ele>
        <time>2019-07-22T10:49:18+02:00</time>
      </trkpt>
      <trkpt lat="45.45109" lon="0.85477">
        <ele>214</ele>
        <time>2019-07-22T10:49:47+02:00</time>
      </trkpt>
      <trkpt lat="45.45103" lon="0.85446">
        <ele>217</ele>
        <time>2019-07-22T10:50:06+02:00</time>
      </trkpt>
      <trkpt lat="45.45098" lon="0.85401">
        <ele>221</ele>
        <time>2019-07-22T10:50:37+02:00</time>
      </trkpt>
      <trkpt lat="45.45087" lon="0.85372">
        <ele>225</ele>
        <time>2019-07-22T10:51:01+02:00</time>
      </trkpt>
      <trkpt lat="45.45066" lon="0.85339">
        <ele>229</ele>
        <time>2019-07-22T10:51:32+02:00</time>
      </trkpt>
      <trkpt lat="45.45052" lon="0.85312">
        <ele>232</ele>
        <time>2019-07-22T10:51:53+02:00</time>
      </trkpt>
      <trkpt lat="45.45032" lon="0.85294">
        <ele>233</ele>
        <time>2019-07-22T10:52:16+02:00</time>
      </trkpt>
      <trkpt lat="45.4501" lon="0.85287">
        <ele>233</ele>
        <time>2019-07-22T10:52:38+02:00</time>
      </trkpt>
      <trkpt lat="45.44987" lon="0.85283">
        <ele>235</ele>
        <time>2019-07-22T10:53:01+02:00</time>
      </trkpt>
      <trkpt lat="45.44964" lon="0.85281">
        <ele>238</ele>
        <time>2019-07-22T10:53:24+02:00</time>
      </trkpt>
      <trkpt lat="45.44942" lon="0.85283">
        <ele>241</ele>
        <time>2019-07-22T10:53:51+02:00</time>
      </trkpt>
      <trkpt lat="45.44911" lon="0.85278">
        <ele>246</ele>
        <time>2019-07-22T10:54:26+02:00</time>
      </trkpt>
      <trkpt lat="45.44889" lon="0.8528">
        <ele>250</ele>
        <time>2019-07-22T10:55:20+02:00</time>
      </trkpt>
      <trkpt lat="45.44863" lon="0.85286">
        <ele>254</ele>
        <time>2019-07-22T10:55:57+02:00</time>
      </trkpt>
      <trkpt lat="45.4484" lon="0.85284">
        <ele>259</ele>
        <time>2019-07-22T10:56:26+02:00</time>
      </trkpt>
      <trkpt lat="45.44811" lon="0.85274">
        <ele>262</ele>
        <time>2019-07-22T10:56:58+02:00</time>
      </trkpt>
      <trkpt lat="45.44783" lon="0.85257">
        <ele>265</ele>
        <time>2019-07-22T10:57:30+02:00</time>
      </trkpt>
      <trkpt lat="45.44763" lon="0.8524">
        <ele>267</ele>
        <time>2019-07-22T10:57:51+02:00</time>
      </trkpt>
      <trkpt lat="45.44738" lon="0.85219">
        <ele>268</ele>
        <time>2019-07-22T10:58:19+02:00</time>
      </trkpt>
      <trkpt lat="45.44718" lon="0.852">
        <ele>269</ele>
        <time>2019-07-22T10:58:44+02:00</time>
      </trkpt>
      <trkpt lat="45.44693" lon="0.85176">
        <ele>270</ele>
        <time>2019-07-22T11:00:31+02:00</time>
      </trkpt>
      <trkpt lat="45.44671" lon="0.85151">
        <ele>271</ele>
        <time>2019-07-22T11:00:56+02:00</time>
      </trkpt>
      <trkpt lat="45.4466" lon="0.85123">
        <ele>272</ele>
        <time>2019-07-22T11:01:18+02:00</time>
      </trkpt>
      <trkpt lat="45.44652" lon="0.85092">
        <ele>272</ele>
        <time>2019-07-22T11:01:42+02:00</time>
      </trkpt>
      <trkpt lat="45.44646" lon="0.85056">
        <ele>271</ele>
        <time>2019-07-22T11:02:03+02:00</time>
      </trkpt>
      <trkpt lat="45.44645" lon="0.85022">
        <ele>271</ele>
        <time>2019-07-22T11:02:20+02:00</time>
      </trkpt>
      <trkpt lat="45.44643" lon="0.8499">
        <ele>270</ele>
        <time>2019-07-22T11:02:39+02:00</time>
      </trkpt>
      <trkpt lat="45.4464" lon="0.84958">
        <ele>270</ele>
        <time>2019-07-22T11:02:58+02:00</time>
      </trkpt>
      <trkpt lat="45.44637" lon="0.84923">
        <ele>270</ele>
        <time>2019-07-22T11:03:23+02:00</time>
      </trkpt>
      <trkpt lat="45.44631" lon="0.84891">
        <ele>270</ele>
        <time>2019-07-22T11:03:42+02:00</time>
      </trkpt>
      <trkpt lat="45.44623" lon="0.84861">
        <ele>270</ele>
        <time>2019-07-22T11:04:01+02:00</time>
      </trkpt>
      <trkpt lat="45.44614" lon="0.8483">
        <ele>270</ele>
        <time>2019-07-22T11:04:24+02:00</time>
      </trkpt>
      <trkpt lat="45.44604" lon="0.84798">
        <ele>271</ele>
        <time>2019-07-22T11:04:49+02:00</time>
      </trkpt>
      <trkpt lat="45.44591" lon="0.84771">
        <ele>272</ele>
        <time>2019-07-22T11:05:08+02:00</time>
      </trkpt>
      <trkpt lat="45.44575" lon="0.84748">
        <ele>273</ele>
        <time>2019-07-22T11:05:29+02:00</time>
      </trkpt>
      <trkpt lat="45.44561" lon="0.84722">
        <ele>273</ele>
        <time>2019-07-22T11:05:53+02:00</time>
      </trkpt>
      <trkpt lat="45.44541" lon="0.84706">
        <ele>273</ele>
        <time>2019-07-22T11:06:16+02:00</time>
      </trkpt>
      <trkpt lat="45.44523" lon="0.84685">
        <ele>274</ele>
        <time>2019-07-22T11:06:36+02:00</time>
      </trkpt>
      <trkpt lat="45.44507" lon="0.84662">
        <ele>275</ele>
        <time>2019-07-22T11:06:57+02:00</time>
      </trkpt>
      <trkpt lat="45.44493" lon="0.84636">
        <ele>274</ele>
        <time>2019-07-22T11:07:17+02:00</time>
      </trkpt>
      <trkpt lat="45.44478" lon="0.84612">
        <ele>272</ele>
        <time>2019-07-22T11:07:40+02:00</time>
      </trkpt>
      <trkpt lat="45.44462" lon="0.8459">
        <ele>271</ele>
        <time>2019-07-22T11:08:01+02:00</time>
      </trkpt>
      <trkpt lat="45.44445" lon="0.84566">
        <ele>270</ele>
        <time>2019-07-22T11:08:23+02:00</time>
      </trkpt>
      <trkpt lat="45.44428" lon="0.84544">
        <ele>269</ele>
        <time>2019-07-22T11:08:45+02:00</time>
      </trkpt>
      <trkpt lat="45.44411" lon="0.84521">
        <ele>268</ele>
        <time>2019-07-22T11:09:07+02:00</time>
      </trkpt>
      <trkpt lat="45.44392" lon="0.84502">
        <ele>267</ele>
        <time>2019-07-22T11:09:31+02:00</time>
      </trkpt>
      <trkpt lat="45.44374" lon="0.84481">
        <ele>266</ele>
        <time>2019-07-22T11:09:53+02:00</time>
      </trkpt>
      <trkpt lat="45.44353" lon="0.84468">
        <ele>266</ele>
        <time>2019-07-22T11:10:16+02:00</time>
      </trkpt>
      <trkpt lat="45.44327" lon="0.84452">
        <ele>265</ele>
        <time>2019-07-22T11:10:45+02:00</time>
      </trkpt>
      <trkpt lat="45.44303" lon="0.8445">
        <ele>264</ele>
        <time>2019-07-22T11:11:37+02:00</time>
      </trkpt>
      <trkpt lat="45.44281" lon="0.84456">
        <ele>263</ele>
        <time>2019-07-22T11:12:02+02:00</time>
      </trkpt>
      <trkpt lat="45.44264" lon="0.84479">
        <ele>262</ele>
        <time>2019-07-22T11:12:26+02:00</time>
      </trkpt>
    </trkseg>
  </trk>
  <trk>
    <name><![CDATA[boucle de la Queue d'Âne variante_2]]></name>
    <trkseg>
      <trkpt lat="45.44696" lon="0.87455">
        <ele>229.1</ele>
      </trkpt>
      <trkpt lat="45.44689" lon="0.87353">
        <ele>228.3</ele>
      </trkpt>
      <trkpt lat="45.44681" lon="0.87277">
        <ele>224.5</ele>
      </trkpt>
      <trkpt lat="45.44675" lon="0.8712">
        <ele>217.6</ele>
      </trkpt>
      <trkpt lat="45.44688" lon="0.87033">
        <ele>220.2</ele>
      </trkpt>
      <trkpt lat="45.4469" lon="0.86934">
        <ele>219.9</ele>
      </trkpt>
      <trkpt lat="45.44696" lon="0.86872">
        <ele>222.5</ele>
      </trkpt>
      <trkpt lat="45.44701" lon="0.86834">
        <ele>223.8</ele>
      </trkpt>
      <trkpt lat="45.44809" lon="0.8683">
        <ele>234.3</ele>
      </trkpt>
      <trkpt lat="45.45029" lon="0.86922">
        <ele>240.9</ele>
      </trkpt>
      <trkpt lat="45.45067" lon="0.86949">
        <ele>239.7</ele>
      </trkpt>
      <trkpt lat="45.45254" lon="0.87037">
        <ele>240.1</ele>
      </trkpt>
      <trkpt lat="45.45364" lon="0.87064">
        <ele>246.4</ele>
      </trkpt>
    </trkseg>
  </trk>
</gpx>